Time;durP1;ratioP1;P1;durP2;ratioP2;P2;SDS_P1;SDS_P2;PMS_P1;PMS_P2;Temp;Humidity;BMP_temperature;BMP_pressure;BME280_temperature;BME280_humidity;BME280_pressure;Samples;Min_cycle;Max_cycle;Signal;HPM_P1;HPM_P2
2022/11/02 00:02:28;;;;;;;29.57;12.27;;;;;;;10.41;55.46;100659.92;124231;1102;102273;-75
2022/11/02 00:04:59;;;;;;;29.40;12.47;;;;;;;10.39;55.34;100658.98;124214;1102;104342;-76
2022/11/02 00:07:31;;;;;;;32.60;12.50;;;;;;;10.36;55.14;100657.94;124254;1102;104211;-75
2022/11/02 00:10:02;;;;;;;34.27;12.93;;;;;;;10.33;55.18;100653.48;124188;1101;104187;-75
2022/11/02 00:12:33;;;;;;;32.30;12.50;;;;;;;10.32;55.89;100651.66;124229;1102;104210;-75
2022/11/02 00:15:04;;;;;;;24.27;11.20;;;;;;;10.31;56.03;100657.72;124264;1102;104220;-75
2022/11/02 00:17:36;;;;;;;24.07;11.90;;;;;;;10.29;56.06;100651.53;124213;1102;104277;-75
2022/11/02 00:20:09;;;;;;;28.57;11.23;;;;;;;10.31;55.78;100647.23;124295;1102;104217;-75
2022/11/02 00:22:42;;;;;;;27.90;11.57;;;;;;;10.34;55.87;100646.50;124279;1100;104165;-75
2022/11/02 00:25:15;;;;;;;27.73;12.00;;;;;;;10.34;55.91;100649.12;124214;1102;104189;-75
2022/11/02 00:27:46;;;;;;;27.20;11.95;;;;;;;10.31;56.29;100648.97;124173;1102;104294;-75
2022/11/02 00:30:18;;;;;;;29.13;12.27;;;;;;;10.30;56.51;100647.17;124210;1102;104166;-75
2022/11/02 00:32:50;;;;;;;32.73;12.93;;;;;;;10.27;56.72;100645.34;124221;1102;102870;-75
2022/11/02 00:35:22;;;;;;;26.40;11.73;;;;;;;10.27;56.73;100637.48;124220;1102;104172;-75
2022/11/02 00:37:54;;;;;;;25.43;11.63;;;;;;;10.24;56.89;100635.62;124165;1102;104561;-76
2022/11/02 00:40:25;;;;;;;30.07;12.07;;;;;;;10.23;56.59;100638.17;124217;1102;104255;-75
2022/11/02 00:42:56;;;;;;;28.13;11.57;;;;;;;10.20;56.68;100638.94;124254;1102;104217;-76
2022/11/02 00:45:27;;;;;;;26.53;11.80;;;;;;;10.19;57.24;100642.42;124298;1102;104271;-75
2022/11/02 00:48:00;;;;;;;25.97;11.60;;;;;;;10.18;56.75;100632.75;124257;1102;103833;-76
2022/11/02 00:50:35;;;;;;;26.95;12.07;;;;;;;10.19;56.96;100628.39;124223;1102;103651;-75
2022/11/02 00:53:07;;;;;;;22.57;11.40;;;;;;;10.17;57.50;100630.07;124251;1102;104252;-75
2022/11/02 00:55:38;;;;;;;25.73;10.80;;;;;;;10.16;57.02;100628.27;124217;1102;104283;-76
2022/11/02 00:58:09;;;;;;;26.53;11.43;;;;;;;10.14;57.21;100624.70;124250;1102;104286;-75
2022/11/02 01:00:40;;;;;;;24.83;11.17;;;;;;;10.13;57.42;100625.52;124247;1102;104224;-75
2022/11/02 01:03:11;;;;;;;27.07;12.37;;;;;;;10.12;57.58;100624.64;124271;1102;104125;-75
2022/11/02 01:05:42;;;;;;;26.37;11.87;;;;;;;10.12;57.52;100623.76;124193;1102;104209;-75
2022/11/02 01:08:13;;;;;;;25.63;11.93;;;;;;;10.11;57.56;100620.22;124233;1102;104236;-76
2022/11/02 01:10:44;;;;;;;31.27;12.63;;;;;;;10.11;58.03;100621.96;124243;1102;104300;-75
2022/11/02 01:13:15;;;;;;;25.57;11.30;;;;;;;10.11;58.35;100619.34;124231;1101;103544;-75
2022/11/02 01:15:47;;;;;;;24.30;11.37;;;;;;;10.10;58.41;100622.78;124254;1102;104258;-75
2022/11/02 01:18:18;;;;;;;24.33;11.20;;;;;;;10.10;57.94;100625.41;124245;1100;104242;-75
2022/11/02 01:20:55;;;;;;;26.23;11.60;;;;;;;10.08;58.56;100621.02;124196;1102;104270;-76
2022/11/02 01:23:26;;;;;;;25.97;11.40;;;;;;;10.09;58.18;100621.90;124254;1101;102883;-76
2022/11/02 01:25:57;;;;;;;27.07;11.77;;;;;;;10.08;58.84;100617.48;124319;1102;104377;-76
2022/11/02 01:28:28;;;;;;;24.05;11.50;;;;;;;10.08;59.01;100612.23;124288;1102;104332;-75
2022/11/02 01:31:00;;;;;;;31.07;12.23;;;;;;;10.07;59.03;100613.97;124269;1102;104178;-76
2022/11/02 01:33:31;;;;;;;27.93;12.03;;;;;;;10.07;59.11;100611.35;124254;1102;104414;-75
2022/11/02 01:36:05;;;;;;;26.13;11.57;;;;;;;10.05;58.63;100612.11;124238;1102;104983;-75
2022/11/02 01:38:36;;;;;;;25.87;11.03;;;;;;;10.04;58.78;100615.59;124225;1102;101893;-75
2022/11/02 01:41:07;;;;;;;25.87;11.90;;;;;;;10.05;59.41;100617.36;124220;1102;104734;-75
2022/11/02 01:43:41;;;;;;;24.23;11.43;;;;;;;10.03;58.97;100614.67;124216;1102;104300;-76
2022/11/02 01:46:20;;;;;;;24.12;11.30;;;;;;;10.03;59.43;100608.55;124255;1102;104280;-75
2022/11/02 01:48:58;;;;;;;27.10;11.77;;;;;;;10.03;59.10;100614.67;124277;1102;102877;-75
2022/11/02 01:51:35;;;;;;;26.57;11.30;;;;;;;10.02;59.39;100602.42;124240;1102;104261;-75
2022/11/02 01:54:12;;;;;;;23.87;11.23;;;;;;;10.00;60.00;100603.19;124256;1102;104162;-75
2022/11/02 01:56:47;;;;;;;23.00;10.87;;;;;;;9.99;60.02;100601.42;124203;1102;104172;-75
2022/11/02 01:59:21;;;;;;;25.03;11.03;;;;;;;9.98;60.13;100603.13;124210;1102;104169;-75
2022/11/02 02:01:53;;;;;;;27.93;12.13;;;;;;;9.97;59.91;100608.30;124273;1102;102986;-76
2022/11/02 02:04:26;;;;;;;26.00;11.13;;;;;;;9.95;59.65;100610.86;124206;1102;104382;-75
2022/11/02 02:06:58;;;;;;;24.77;11.03;;;;;;;9.95;60.17;100613.48;124185;1102;104833;-75
2022/11/02 02:09:30;;;;;;;26.97;11.17;;;;;;;9.93;60.24;100604.67;124250;1102;104185;-76
2022/11/02 02:12:01;;;;;;;29.97;11.40;;;;;;;9.91;60.54;100608.97;124226;1102;104201;-75
2022/11/02 02:14:33;;;;;;;23.73;11.30;;;;;;;9.87;60.55;100610.55;124251;1102;102216;-76
2022/11/02 02:17:22;;;;;;;25.23;11.10;;;;;;;9.84;60.10;100614.79;124194;1102;104438;-76
2022/11/02 02:19:58;;;;;;;23.90;11.20;;;;;;;9.80;60.25;100611.16;124284;1102;104169;-76
2022/11/02 02:23:13;;;;;;;25.17;11.37;;;;;;;9.76;61.01;100605.73;124230;1102;104163;-76
2022/11/02 02:26:08;;;;;;;30.23;11.70;;;;;;;9.72;60.88;100612.55;124241;1102;102454;-75
2022/11/02 02:28:45;;;;;;;24.90;11.83;;;;;;;9.67;60.99;100604.50;124276;1102;102831;-75
2022/11/02 02:31:23;;;;;;;25.27;11.33;;;;;;;9.64;60.68;100614.86;124190;1102;104242;-75
2022/11/02 02:34:01;;;;;;;27.77;11.83;;;;;;;9.61;60.99;100619.08;124238;1103;102838;-75
2022/11/02 02:36:36;;;;;;;24.27;11.47;;;;;;;9.59;60.77;100621.64;124214;1102;104169;-75
2022/11/02 02:39:12;;;;;;;28.20;11.55;;;;;;;9.59;61.37;100616.40;124240;1102;101934;-75
2022/11/02 02:41:52;;;;;;;31.00;12.80;;;;;;;9.58;61.15;100619.84;124225;1101;104175;-75
2022/11/02 02:44:27;;;;;;;26.23;11.70;;;;;;;9.57;61.25;100623.31;124214;1102;104308;-75
2022/11/02 02:47:04;;;;;;;26.50;11.70;;;;;;;9.57;60.93;100620.69;124176;1102;104185;-76
2022/11/02 02:49:40;;;;;;;25.67;12.33;;;;;;;9.56;61.32;100607.53;124210;1102;104254;-75
2022/11/02 02:52:13;;;;;;;25.47;11.83;;;;;;;9.58;61.27;100616.34;124263;1102;104366;-76
2022/11/02 02:54:47;;;;;;;24.90;11.90;;;;;;;9.58;61.29;100614.60;124274;1102;104245;-76
2022/11/02 02:57:21;;;;;;;25.55;11.35;;;;;;;9.60;62.08;100614.66;124218;1100;104169;-75
2022/11/02 02:59:53;;;;;;;24.63;11.53;;;;;;;9.61;61.55;100616.46;124228;1102;104277;-76
2022/11/02 03:02:30;;;;;;;29.23;12.30;;;;;;;9.60;62.03;100623.44;124253;1102;102449;-75
2022/11/02 03:05:02;;;;;;;26.67;12.17;;;;;;;9.56;62.28;100626.75;124218;1102;111307;-75
2022/11/02 03:07:35;;;;;;;28.43;12.97;;;;;;;9.51;62.32;100625.67;124262;1102;104166;-76
2022/11/02 03:10:17;;;;;;;28.63;12.27;;;;;;;9.42;62.51;100626.17;124207;1102;104261;-76
2022/11/02 03:12:57;;;;;;;31.07;14.60;;;;;;;9.27;62.56;100626.43;124145;1102;104329;-76
2022/11/02 03:15:36;;;;;;;30.87;15.53;;;;;;;9.08;62.55;100634.30;124251;1102;104322;-76
2022/11/02 03:18:14;;;;;;;35.00;14.90;;;;;;;8.90;62.76;100626.55;124192;1102;104335;-75
2022/11/02 03:20:54;;;;;;;35.03;17.00;;;;;;;8.79;62.77;100631.30;124155;1102;104217;-75
2022/11/02 03:23:29;;;;;;;40.57;19.17;;;;;;;8.67;62.58;100628.13;124213;1102;102796;-76
2022/11/02 03:26:07;;;;;;;34.77;17.10;;;;;;;8.58;63.01;100632.09;124252;1102;104338;-76
2022/11/02 03:28:56;;;;;;;36.27;18.10;;;;;;;8.50;63.10;100625.62;124227;1103;104063;-75
2022/11/02 03:31:37;;;;;;;36.30;18.70;;;;;;;8.42;63.39;100629.58;124225;1102;104274;-76
2022/11/02 03:34:22;;;;;;;38.43;18.10;;;;;;;8.33;63.10;100626.54;124166;1102;104262;-75
2022/11/02 03:37:00;;;;;;;35.57;18.17;;;;;;;8.28;62.89;100621.09;124212;1102;104297;-75
2022/11/02 03:39:37;;;;;;;36.67;16.67;;;;;;;8.26;63.15;100625.36;124252;1102;104173;-75
2022/11/02 03:42:14;;;;;;;40.77;18.63;;;;;;;8.23;63.59;100626.11;124251;1102;104239;-75
2022/11/02 03:44:48;;;;;;;37.33;17.23;;;;;;;8.20;63.42;100625.08;124219;1102;102847;-76
2022/11/02 03:47:22;;;;;;;36.50;18.43;;;;;;;8.18;63.31;100619.78;124308;1102;104169;-76
2022/11/02 03:49:56;;;;;;;39.07;18.60;;;;;;;8.15;63.67;100624.86;124283;1102;104252;-76
2022/11/02 03:52:31;;;;;;;39.37;18.63;;;;;;;8.12;63.61;100624.71;124224;1100;104249;-76
2022/11/02 03:55:09;;;;;;;37.37;18.00;;;;;;;8.11;64.10;100617.68;124239;1102;104262;-76
2022/11/02 03:57:45;;;;;;;39.70;18.60;;;;;;;8.10;63.67;100618.49;124259;1102;103718;-76
2022/11/02 04:00:20;;;;;;;37.17;18.47;;;;;;;8.03;64.21;100621.66;124283;1101;102944;-77
2022/11/02 04:02:59;;;;;;;39.35;18.65;;;;;;;7.95;64.03;100609.92;124263;1102;104175;-76
2022/11/02 04:05:33;;;;;;;38.40;18.40;;;;;;;7.92;64.43;100613.30;124276;1102;104332;-76
2022/11/02 04:08:23;;;;;;;38.53;18.67;;;;;;;7.88;64.71;100608.73;124256;1101;104185;-76
2022/11/02 04:16:40;;;;;;;37.33;18.30;;;;;;;7.66;65.05;100617.25;124157;1102;119074;-76
2022/11/02 04:19:27;;;;;;;39.70;18.57;;;;;;;7.60;65.89;100609.11;124223;1102;102915;-76
2022/11/02 04:27:40;;;;;;;41.03;20.80;;;;;;;7.46;66.32;100630.20;124270;1102;104242;-76
2022/11/02 04:30:13;;;;;;;40.43;18.00;;;;;;;7.42;66.78;100620.44;124268;1102;102931;-76
2022/11/02 04:35:37;;;;;;;41.90;18.87;;;;;;;7.40;67.32;100619.45;124273;1101;104252;-75
2022/11/02 04:43:46;;;;;;;40.10;19.40;;;;;;;7.46;67.49;100638.03;124263;1102;103541;-76
2022/11/02 04:46:18;;;;;;;38.77;19.07;;;;;;;7.47;68.18;100633.73;124231;1102;104165;-75
2022/11/02 04:48:50;;;;;;;40.20;18.20;;;;;;;7.48;68.29;100640.72;124206;1102;104207;-75
2022/11/02 04:51:24;;;;;;;42.57;19.23;;;;;;;7.47;68.54;100639.84;124309;1102;104223;-75
2022/11/02 04:53:54;;;;;;;;;;;;;;;7.43;70.19;100640.48;124263;1102;102205;-76
2022/11/02 04:56:28;;;;;;;38.60;18.67;;;;;;;7.41;68.69;100633.42;124236;1102;102431;-76
2022/11/02 04:59:01;;;;;;;37.63;18.23;;;;;;;7.41;68.60;100639.53;124210;1103;102676;-76
2022/11/02 05:01:34;;;;;;;47.53;19.47;;;;;;;7.44;68.10;100639.68;124237;1102;104259;-76
2022/11/02 05:04:06;;;;;;;40.13;19.77;;;;;;;7.46;68.07;100638.03;124207;1102;104211;-76
2022/11/02 05:06:38;;;;;;;42.53;19.93;;;;;;;7.47;68.47;100642.45;124295;1102;104211;-75
2022/11/02 05:09:10;;;;;;;38.70;19.63;;;;;;;7.46;68.81;100644.98;124303;1102;103084;-75
2022/11/02 05:11:42;;;;;;;34.30;18.17;;;;;;;7.45;69.09;100644.09;124234;1101;103369;-77
2022/11/02 05:14:13;;;;;;;40.40;18.70;;;;;;;7.43;69.60;100648.32;124283;1102;104179;-76
2022/11/02 05:16:45;;;;;;;43.13;18.23;;;;;;;7.41;69.66;100657.80;124281;1102;104182;-76
2022/11/02 05:19:17;;;;;;;39.23;18.27;;;;;;;7.39;70.34;100662.06;124290;1102;104355;-76
2022/11/02 05:21:48;;;;;;;38.77;18.50;;;;;;;7.34;70.61;100666.16;124270;1102;104334;-76
2022/11/02 05:24:19;;;;;;;39.33;18.63;;;;;;;7.32;70.06;100663.47;124250;1102;104175;-76
2022/11/02 05:26:50;;;;;;;37.53;19.00;;;;;;;7.36;70.38;100672.34;124242;1102;104203;-76
2022/11/02 05:29:22;;;;;;;;;;;;;;;7.41;71.89;100676.08;124261;1102;104239;-76
2022/11/02 05:31:53;;;;;;;41.87;18.40;;;;;;;7.48;70.69;100670.36;124237;1102;102973;-76
2022/11/02 05:34:25;;;;;;;37.23;18.30;;;;;;;7.55;71.50;100682.89;124356;1102;104400;-76
2022/11/02 05:36:57;;;;;;;35.43;17.70;;;;;;;7.63;72.25;100678.05;124358;1102;102855;-76
2022/11/02 05:39:32;;;;;;;39.67;18.17;;;;;;;7.68;71.30;100681.81;124421;1102;104178;-76
2022/11/02 05:42:03;;;;;;;38.40;17.80;;;;;;;7.77;72.86;100683.09;124313;1102;104211;-76
2022/11/02 05:44:48;;;;;;;37.80;18.33;;;;;;;7.75;71.98;100672.56;124282;1102;102845;-77
2022/11/02 05:47:19;;;;;;;39.43;18.40;;;;;;;7.90;72.29;100682.89;124169;1102;103268;-77
2022/11/02 05:49:50;;;;;;;38.30;17.33;;;;;;;7.96;73.26;100679.66;124351;1101;104172;-76
2022/11/02 05:52:21;;;;;;;39.90;18.83;;;;;;;8.02;74.38;100687.80;124310;1102;104182;-77
2022/11/02 05:54:52;;;;;;;35.73;17.33;;;;;;;8.08;74.80;100685.48;124409;1102;104178;-76
2022/11/02 05:57:24;;;;;;;39.40;17.67;;;;;;;8.15;75.49;100687.59;124437;1102;104217;-76
2022/11/02 05:59:55;;;;;;;35.07;17.63;;;;;;;8.23;74.50;100695.80;124388;1101;104272;-77
2022/11/02 06:02:26;;;;;;;36.53;17.27;;;;;;;8.28;74.25;100692.56;124367;1102;104227;-76
2022/11/02 06:04:57;;;;;;;34.97;17.20;;;;;;;8.36;74.89;100699.89;124474;1102;104303;-77
2022/11/02 06:07:29;;;;;;;32.57;16.47;;;;;;;8.44;75.45;100698.56;124422;1102;104204;-77
2022/11/02 06:10:01;;;;;;;36.40;17.33;;;;;;;8.53;75.30;100703.34;124444;1102;102809;-76
2022/11/02 06:12:35;;;;;;;33.37;18.40;;;;;;;8.64;74.62;100710.85;124451;1102;104198;-77
2022/11/02 06:15:08;;;;;;;35.87;17.83;;;;;;;8.76;74.38;100713.16;124366;1102;104399;-76
2022/11/02 06:17:42;;;;;;;39.20;19.50;;;;;;;8.90;73.80;100694.59;124510;1102;104252;-76
2022/11/02 06:20:14;;;;;;;39.85;18.57;;;;;;;9.03;73.49;100699.53;124414;1102;104248;-76
2022/11/02 06:22:46;;;;;;;37.20;19.03;;;;;;;9.15;73.52;100707.94;124333;1102;103217;-77
2022/11/02 06:25:18;;;;;;;42.13;18.97;;;;;;;9.30;73.67;100706.82;124130;1102;103094;-76
2022/11/02 06:27:55;;;;;;;37.47;17.83;;;;;;;9.44;73.96;100694.33;124090;1102;104070;-76
2022/11/02 06:30:27;;;;;;;38.70;17.73;;;;;;;9.57;73.48;100700.98;124136;1102;104182;-76
2022/11/02 06:32:58;;;;;;;38.53;18.67;;;;;;;9.69;74.26;100691.95;124152;1102;104316;-75
2022/11/02 06:35:31;;;;;;;34.77;17.73;;;;;;;9.86;74.76;100695.28;124171;1102;102163;-75
2022/11/02 06:38:08;;;;;;;34.47;17.53;;;;;;;10.01;74.43;100695.00;124123;1102;103199;-75
2022/11/02 06:40:41;;;;;;;38.07;18.00;;;;;;;10.17;74.76;100698.25;124096;1101;104185;-75
2022/11/02 06:43:13;;;;;;;;;;;;;;;10.28;75.15;100694.32;124187;1102;102959;-75
2022/11/02 06:45:45;;;;;;;36.90;19.10;;;;;;;10.38;75.02;100693.90;124092;1102;104271;-76
2022/11/02 06:48:17;;;;;;;33.63;16.97;;;;;;;10.46;75.02;100686.33;124135;1100;102420;-74
2022/11/02 06:50:48;;;;;;;35.47;16.97;;;;;;;10.56;74.87;100696.33;124107;1102;102490;-75
2022/11/02 06:53:19;;;;;;;35.93;16.97;;;;;;;10.65;74.67;100702.79;124137;1102;104172;-75
2022/11/02 06:55:56;;;;;;;35.47;18.40;;;;;;;10.74;74.60;100696.16;124117;1102;104185;-76
2022/11/02 06:58:28;;;;;;;40.07;18.37;;;;;;;10.83;74.90;100690.38;124135;1103;101923;-75
2022/11/02 07:01:04;;;;;;;38.27;17.70;;;;;;;10.93;75.47;100686.34;124189;1100;104281;-75
2022/11/02 07:03:36;;;;;;;37.10;17.33;;;;;;;11.04;75.12;100689.38;124172;1102;104355;-75
2022/11/02 07:06:12;;;;;;;36.77;17.93;;;;;;;11.16;75.37;100681.95;124188;1102;104259;-75
2022/11/02 07:08:46;;;;;;;39.60;19.10;;;;;;;11.27;75.07;100687.59;124156;1102;104191;-75
2022/11/02 07:11:18;;;;;;;36.42;17.20;;;;;;;11.37;75.15;100684.42;123932;1102;104294;-76
2022/11/02 07:13:52;;;;;;;36.43;17.60;;;;;;;11.48;75.06;100690.06;124133;1102;103746;-75
2022/11/02 07:16:24;;;;;;;36.57;17.30;;;;;;;11.63;74.96;100692.34;124131;1102;103657;-76
2022/11/02 07:18:58;;;;;;;34.87;17.83;;;;;;;11.76;74.90;100673.50;124149;1102;102870;-75
2022/11/02 07:21:32;;;;;;;35.80;17.60;;;;;;;11.90;74.77;100683.59;125557;1100;104242;-75
2022/11/02 07:24:05;;;;;;;40.37;18.20;;;;;;;12.01;74.86;100669.09;124132;1102;102363;-74
2022/11/02 07:26:37;;;;;;;36.57;17.00;;;;;;;12.16;74.87;100677.48;124187;1102;102252;-75
2022/11/02 07:29:09;;;;;;;62.90;27.50;;;;;;;12.26;75.00;100673.39;124069;1101;104223;-75
2022/11/02 07:31:40;;;;;;;40.07;19.10;;;;;;;12.37;74.62;100668.47;124112;1102;104410;-74
2022/11/02 07:34:12;;;;;;;35.43;17.97;;;;;;;12.47;74.79;100670.55;123962;1102;104182;-74
2022/11/02 07:36:45;;;;;;;31.37;16.33;;;;;;;12.58;74.54;100660.35;124120;1102;103659;-75
2022/11/02 07:39:23;;;;;;;38.47;17.97;;;;;;;12.70;74.68;100657.17;124134;1102;103722;-75
2022/11/02 07:41:54;;;;;;;36.17;18.20;;;;;;;12.84;74.90;100660.20;124153;1102;104320;-76
2022/11/02 07:44:31;;;;;;;39.33;19.33;;;;;;;12.95;74.25;100651.78;124152;1102;104298;-76
2022/11/02 07:47:02;;;;;;;38.47;18.23;;;;;;;13.07;74.54;100653.87;124128;1102;102883;-75
2022/11/02 07:49:46;;;;;;;36.90;18.00;;;;;;;13.19;74.56;100657.70;124194;1102;102883;-76
2022/11/02 07:52:18;;;;;;;33.53;18.02;;;;;;;13.30;73.92;100654.48;124154;1102;104172;-75
2022/11/02 07:54:50;;;;;;;38.53;18.67;;;;;;;13.42;74.08;100655.72;124011;1102;104280;-76
2022/11/02 07:57:33;;;;;;;34.40;17.93;;;;;;;13.52;74.16;100649.82;124860;1101;104303;-76
2022/11/02 08:00:07;;;;;;;38.30;18.23;;;;;;;13.63;74.31;100651.02;124641;1102;104211;-76
2022/11/02 08:02:44;;;;;;;33.27;16.73;;;;;;;13.72;73.69;100650.33;124181;1102;104267;-76
2022/11/02 08:05:18;;;;;;;35.93;18.27;;;;;;;13.82;73.99;100652.36;124303;1102;103407;-76
2022/11/02 08:07:55;;;;;;;39.78;18.90;;;;;;;13.92;73.07;100653.47;124277;1102;104197;-76
2022/11/02 08:10:31;;;;;;;38.60;19.77;;;;;;;14.02;73.83;100650.22;124298;1102;104287;-75
2022/11/02 08:13:08;;;;;;;35.47;19.17;;;;;;;14.10;72.69;100657.40;124230;1101;104331;-75
2022/11/02 08:15:40;;;;;;;35.20;19.20;;;;;;;14.18;72.54;100661.14;124290;1102;102426;-75
2022/11/02 08:18:20;;;;;;;43.20;19.27;;;;;;;14.25;72.90;100646.33;124313;1102;104262;-76
2022/11/02 08:20:57;;;;;;;37.17;19.13;;;;;;;14.33;72.41;100648.27;124956;1102;104258;-76
2022/11/02 08:23:33;;;;;;;36.03;18.13;;;;;;;14.39;71.87;100637.84;124888;1102;104432;-75
2022/11/02 08:26:18;;;;;;;36.07;18.70;;;;;;;14.46;72.01;100649.45;124261;1102;102223;-76
2022/11/02 08:28:55;;;;;;;36.30;17.77;;;;;;;14.53;71.60;100631.98;124331;1102;104241;-76
2022/11/02 08:31:40;;;;;;;33.60;18.23;;;;;;;14.63;71.87;100639.30;124313;1102;103074;-75
2022/11/02 08:34:20;;;;;;;42.30;19.10;;;;;;;14.71;71.62;100631.53;124440;1102;104204;-76
2022/11/02 08:36:54;;;;;;;31.77;16.33;;;;;;;14.82;71.10;100632.64;124887;1102;104172;-76
2022/11/02 08:39:36;;;;;;;36.60;18.57;;;;;;;14.91;71.30;100630.19;124911;1102;102355;-74
2022/11/02 08:42:09;;;;;;;34.23;17.40;;;;;;;15.01;70.58;100636.53;124861;1102;111785;-76
2022/11/02 08:44:49;;;;;;;34.73;16.70;;;;;;;15.06;68.15;100634.86;124329;1102;102583;-75
2022/11/02 08:47:24;;;;;;;40.30;17.23;;;;;;;15.12;69.09;100635.87;124491;1099;104351;-76
2022/11/02 08:49:56;;;;;;;34.70;15.60;;;;;;;15.17;69.24;100632.42;125950;1098;104336;-75
2022/11/02 08:52:35;;;;;;;36.90;15.97;;;;;;;15.26;69.97;100623.80;124970;1099;104169;-75
2022/11/02 08:55:09;;;;;;;34.43;16.70;;;;;;;15.35;68.98;100630.98;124847;1099;104179;-73
2022/11/02 08:57:50;;;;;;;38.55;16.60;;;;;;;15.42;69.13;100628.48;124697;1099;101852;-72
2022/11/02 09:00:25;;;;;;;31.10;15.97;;;;;;;15.46;68.16;100625.04;124785;1099;104169;-73
2022/11/02 09:03:05;;;;;;;30.87;16.60;;;;;;;15.48;68.05;100618.90;125156;1099;107085;-73
2022/11/02 09:05:38;;;;;;;29.43;15.80;;;;;;;15.51;68.88;100625.12;124284;1099;102543;-73
2022/11/02 09:08:15;;;;;;;30.27;15.53;;;;;;;15.54;67.16;100627.82;124715;1099;104159;-74
2022/11/02 09:10:52;;;;;;;30.23;15.13;;;;;;;15.48;65.85;100618.90;124417;1099;104217;-76
2022/11/02 09:13:27;;;;;;;31.17;16.37;;;;;;;15.51;68.00;100617.19;124821;1099;102407;-75
2022/11/02 09:16:00;;;;;;;33.17;15.57;;;;;;;15.60;67.11;100605.89;124212;1099;104265;-74
2022/11/02 09:18:36;;;;;;;31.97;16.03;;;;;;;15.64;67.26;100602.41;124709;1099;104283;-74
2022/11/02 09:21:09;;;;;;;34.20;17.00;;;;;;;15.71;67.24;100596.36;124666;1098;104166;-74
2022/11/02 09:23:42;;;;;;;31.30;15.80;;;;;;;15.74;66.26;100619.34;124667;1098;104198;-74
2022/11/02 09:26:14;;;;;;;32.13;15.90;;;;;;;15.77;65.76;100611.49;124677;1099;104316;-73
2022/11/02 09:28:46;;;;;;;31.93;15.53;;;;;;;15.78;66.30;100610.61;124236;1099;104158;-76
2022/11/02 09:31:17;;;;;;;31.53;15.20;;;;;;;15.79;65.32;100613.28;125861;1098;104198;-75
2022/11/02 09:33:49;;;;;;;29.20;15.20;;;;;;;15.83;65.63;100608.03;124190;1099;104160;-75
2022/11/02 09:36:22;;;;;;;26.93;14.00;;;;;;;15.90;66.03;100609.92;124301;1102;102883;-75
2022/11/02 09:39:03;;;;;;;31.70;16.47;;;;;;;15.93;65.69;100610.85;124665;1099;104238;-74
2022/11/02 09:41:52;;;;;;;29.37;15.97;;;;;;;15.99;65.32;100599.48;125992;1098;104028;-74
2022/11/02 09:44:32;;;;;;;27.13;14.50;;;;;;;16.04;65.39;100597.78;124677;1099;104051;-76
2022/11/02 09:47:03;;;;;;;34.63;16.73;;;;;;;16.08;65.17;100588.12;124691;1099;104177;-74
2022/11/02 09:49:35;;;;;;;29.00;14.57;;;;;;;16.13;65.27;100591.75;124727;1099;102806;-73
2022/11/02 09:52:24;;;;;;;34.93;18.90;;;;;;;16.18;64.94;100595.34;124610;1099;104348;-72
2022/11/02 09:54:59;;;;;;;38.60;18.67;;;;;;;16.24;64.83;100583.96;124711;1099;104121;-74
2022/11/02 09:57:34;;;;;;;29.43;15.10;;;;;;;16.31;64.03;100585.80;126076;1098;102251;-74
2022/11/02 10:00:22;;;;;;;;;;;;;;;;;;;;;
2022/11/02 10:03:18;;;;;;;31.10;14.63;;;;;;;16.46;64.50;100569.24;124870;1098;102304;-75
2022/11/02 10:06:19;;;;;;;28.70;13.87;;;;;;;16.44;64.40;100563.92;124839;1099;104223;-75
2022/11/02 10:09:04;;;;;;;27.93;14.40;;;;;;;16.58;63.24;100579.08;125491;1099;102707;-75
2022/11/02 10:11:47;;;;;;;31.40;14.73;;;;;;;16.64;63.86;100573.86;126025;1098;102406;-76
2022/11/02 10:14:30;;;;;;;28.90;13.97;;;;;;;16.67;63.59;100568.59;124927;1099;110947;-75
2022/11/02 10:17:15;;;;;;;28.20;14.70;;;;;;;16.76;64.31;100568.70;124849;1099;104188;-75
2022/11/02 10:19:54;;;;;;;28.53;13.80;;;;;;;16.85;63.35;100559.98;125949;1098;104238;-75
2022/11/02 10:22:33;;;;;;;28.30;13.83;;;;;;;16.90;63.18;100555.64;125998;1098;104249;-76
2022/11/02 10:25:13;;;;;;;28.70;14.00;;;;;;;16.89;62.82;100559.16;124453;1099;102854;-77
2022/11/02 10:27:48;;;;;;;26.70;13.93;;;;;;;16.86;61.47;100570.63;124840;1099;102218;-77
2022/11/02 10:30:22;;;;;;;29.23;13.80;;;;;;;16.89;62.19;100560.06;126062;1098;104159;-74
2022/11/02 10:33:00;;;;;;;29.43;13.60;;;;;;;16.85;60.90;100550.27;124837;1099;102906;-75
2022/11/02 10:35:43;;;;;;;26.13;12.97;;;;;;;16.89;60.96;100544.16;124440;1099;104344;-75
2022/11/02 10:38:36;;;;;;;25.30;12.93;;;;;;;16.92;61.58;100540.64;124859;1099;104226;-77
2022/11/02 10:41:24;;;;;;;27.67;13.50;;;;;;;16.96;61.40;100544.23;125010;1099;104236;-76
2022/11/02 10:44:25;;;;;;;28.63;13.30;;;;;;;17.03;61.98;100531.05;124546;1099;104159;-76
2022/11/02 10:47:10;;;;;;;26.63;13.53;;;;;;;17.07;60.79;100540.80;125827;1099;103741;-76
2022/11/02 10:50:31;;;;;;;30.57;13.67;;;;;;;17.07;60.59;100547.87;125070;1099;102830;-74
2022/11/02 10:53:13;;;;;;;27.13;13.20;;;;;;;17.11;61.33;100539.08;124725;1099;104232;-75
2022/11/02 10:56:07;;;;;;;24.13;13.00;;;;;;;17.18;60.81;100530.30;125501;1099;104245;-75
2022/11/02 10:58:44;;;;;;;26.50;13.23;;;;;;;17.17;60.86;100519.67;124417;1099;104236;-76
2022/11/02 11:01:16;;;;;;;25.10;13.03;;;;;;;17.16;60.31;100529.40;125063;1099;104163;-77
2022/11/02 11:04:07;;;;;;;27.33;13.13;;;;;;;17.13;60.21;100526.72;125062;1099;104678;-76
2022/11/02 11:07:04;;;;;;;25.27;12.67;;;;;;;17.03;59.90;100508.94;124419;1099;104293;-76
2022/11/02 11:09:53;;;;;;;30.03;13.37;;;;;;;17.03;60.22;100519.54;124392;1099;104271;-77
2022/11/02 11:12:45;;;;;;;25.67;13.30;;;;;;;17.03;59.92;100527.49;124867;1099;102267;-77
2022/11/02 11:15:38;;;;;;;29.57;13.20;;;;;;;17.04;59.45;100529.28;124838;1099;104188;-77
2022/11/02 11:18:21;;;;;;;29.37;13.57;;;;;;;17.06;60.22;100538.13;124469;1099;102656;-76
2022/11/02 11:21:35;;;;;;;27.40;14.57;;;;;;;17.09;59.63;100546.11;125416;1098;104083;-76
2022/11/02 11:24:29;;;;;;;28.77;14.20;;;;;;;17.07;60.17;100537.27;125015;1099;104414;-77
2022/11/02 11:27:22;;;;;;;28.65;13.50;;;;;;;17.04;59.68;100538.11;126176;1098;104171;-76
2022/11/02 11:30:00;;;;;;;23.65;12.33;;;;;;;17.08;59.34;100541.70;125060;1099;104296;-76
2022/11/02 11:32:36;;;;;;;28.20;13.53;;;;;;;17.14;58.46;100528.51;124780;1099;104373;-76
2022/11/02 11:35:18;;;;;;;27.73;14.60;;;;;;;17.20;59.30;100528.56;124851;1099;104185;-77
2022/11/02 11:38:25;;;;;;;27.77;13.80;;;;;;;17.14;59.45;100533.81;124840;1099;104277;-76
2022/11/02 11:41:16;;;;;;;29.57;13.17;;;;;;;17.05;58.55;100536.38;124751;1099;104172;-76
2022/11/02 11:43:52;;;;;;;30.83;13.87;;;;;;;16.95;58.89;100534.48;124713;1099;102441;-76
2022/11/02 11:47:09;;;;;;;;;;;;;;;;;;;;;
2022/11/02 11:49:51;;;;;;;34.13;15.87;;;;;;;16.84;58.86;100556.45;124895;1099;104191;-76
2022/11/02 11:55:26;;;;;;;41.20;18.90;;;;;;;16.67;59.26;100543.02;126032;1098;102162;-76
2022/11/02 11:58:13;;;;;;;31.83;14.70;;;;;;;16.63;59.97;100551.78;124322;1099;104265;-76
2022/11/02 12:00:45;;;;;;;29.10;14.30;;;;;;;16.52;59.25;100548.13;125477;1099;104348;-75
2022/11/02 12:03:49;;;;;;;34.40;14.77;;;;;;;16.43;59.89;100550.66;125541;1099;104829;-76
2022/11/02 12:06:32;;;;;;;26.53;13.60;;;;;;;16.33;59.81;100541.69;125457;1098;104235;-76